Sterling Heights, Michigan
Current Conditions -  °F | °C
As of 11:08 PM on Saturday 22 Nov 2014 (Local Time) from KMTC Reporting Station
Overcast Overcast  
Wind Chill: 44°   Ceiling: 7000
Heat Index: 48°   Visibility: 10mi
Dew Point: 45°   Wind: 9mph
Humidity: 87%   Direction: 220°SW
Pressure: 29.92"   Gusts: NA
Location:  42.59°N, 83.01°W
Report Text: KMTC 230408Z AUTO 22008KT 10SM SCT027 SCT042 OVC070 09/07 A2992 RMK AO2 CIG 034 RWY01
Loading
Personal Weather Stations






























Interactive Weather Map New forecast layout! Learn more

10-Day Weather Forecast

Advertisements
Track Severe Weather on mobile